航空気象通報

ウインドサーファーのための航空気象通報による風予報です。

4/28-29の航空気象通報(国内、海外)

2008年04月28日 23時33分22秒 | TAF
羽田空港
TAF RJTT 280848Z 281812 03010KT 9999 FEW015 SCT030
BECMG 0003 13008KT
日本時間29日03-09時:030度から10ノットの風
09-12時:風が変化
12-21時:130度から8ノットの風


那覇空港
TAF ROAH 280841Z 281812 07012KT 9999 FEW020 SCT045
日本時間29日03-21時:070度から12ノットの風


マウイのカフルイ空港
PHOG 281129Z 281212 05010G16KT P6SM FEW040 BKN250
FM2100 05018G25KT P6SM SCT050 BKN250
FM0600 05010G16KT P6SM FEW040 BKN250
ハワイ時間28日02-11時:050度から10ノット、突風16ノット
11-20時:050度から18ノット、突風25ノット
20時-29日02時:050度から10ノット、突風16ノット


サイパン空港
PGSN 281120Z 281212 09012KT P6SM VCSH SCT023
マリアナ時間28日22時-29日22時:090度から12ノットの風

コメント